sensor_id;sensor_type;location;lat;lon;timestamp;P1;durP1;ratioP1;P2;durP2;ratioP2
4148;SDS011;2088;51.032;7.082;2024-01-11T00:01:49;6.60;;;5.10;;
4148;SDS011;2088;51.032;7.082;2024-01-11T00:04:17;20.47;;;9.07;;
4148;SDS011;2088;51.032;7.082;2024-01-11T00:06:46;11.50;;;6.40;;
4148;SDS011;2088;51.032;7.082;2024-01-11T00:09:13;9.70;;;4.73;;
4148;SDS011;2088;51.032;7.082;2024-01-11T00:11:40;9.30;;;5.20;;
4148;SDS011;2088;51.032;7.082;2024-01-11T00:14:07;11.40;;;6.00;;
4148;SDS011;2088;51.032;7.082;2024-01-11T00:16:34;11.63;;;4.80;;
4148;SDS011;2088;51.032;7.082;2024-01-11T00:19:01;23.93;;;6.30;;
4148;SDS011;2088;51.032;7.082;2024-01-11T00:21:28;19.27;;;5.40;;
4148;SDS011;2088;51.032;7.082;2024-01-11T00:23:56;17.53;;;6.13;;
4148;SDS011;2088;51.032;7.082;2024-01-11T00:26:23;12.50;;;6.67;;
4148;SDS011;2088;51.032;7.082;2024-01-11T00:28:50;20.97;;;6.73;;
4148;SDS011;2088;51.032;7.082;2024-01-11T00:31:17;11.27;;;5.70;;
4148;SDS011;2088;51.032;7.082;2024-01-11T00:33:44;15.20;;;5.77;;
4148;SDS011;2088;51.032;7.082;2024-01-11T00:36:16;9.20;;;5.93;;
4148;SDS011;2088;51.032;7.082;2024-01-11T00:38:44;10.20;;;4.87;;
4148;SDS011;2088;51.032;7.082;2024-01-11T00:41:13;15.40;;;6.00;;
4148;SDS011;2088;51.032;7.082;2024-01-11T00:43:40;13.43;;;6.00;;
4148;SDS011;2088;51.032;7.082;2024-01-11T00:46:07;16.77;;;5.80;;
4148;SDS011;2088;51.032;7.082;2024-01-11T00:48:34;14.20;;;5.07;;
4148;SDS011;2088;51.032;7.082;2024-01-11T00:51:01;9.33;;;5.73;;
4148;SDS011;2088;51.032;7.082;2024-01-11T00:53:28;9.90;;;5.70;;
4148;SDS011;2088;51.032;7.082;2024-01-11T00:55:56;16.27;;;6.70;;
4148;SDS011;2088;51.032;7.082;2024-01-11T00:58:24;10.43;;;5.67;;
4148;SDS011;2088;51.032;7.082;2024-01-11T01:00:52;9.50;;;5.70;;
4148;SDS011;2088;51.032;7.082;2024-01-11T01:03:19;12.33;;;5.53;;
4148;SDS011;2088;51.032;7.082;2024-01-11T01:05:46;9.17;;;5.83;;
4148;SDS011;2088;51.032;7.082;2024-01-11T01:08:14;8.00;;;5.00;;
4148;SDS011;2088;51.032;7.082;2024-01-11T01:10:41;9.00;;;5.47;;
4148;SDS011;2088;51.032;7.082;2024-01-11T01:13:08;10.47;;;4.23;;
4148;SDS011;2088;51.032;7.082;2024-01-11T01:15:36;13.43;;;6.80;;
4148;SDS011;2088;51.032;7.082;2024-01-11T01:18:03;7.83;;;5.53;;
4148;SDS011;2088;51.032;7.082;2024-01-11T01:20:30;11.70;;;5.30;;
4148;SDS011;2088;51.032;7.082;2024-01-11T01:22:57;7.20;;;4.27;;
4148;SDS011;2088;51.032;7.082;2024-01-11T01:25:24;12.53;;;5.47;;
4148;SDS011;2088;51.032;7.082;2024-01-11T01:27:51;11.90;;;5.20;;
4148;SDS011;2088;51.032;7.082;2024-01-11T01:30:19;15.93;;;5.60;;
4148;SDS011;2088;51.032;7.082;2024-01-11T01:32:47;13.87;;;5.73;;
4148;SDS011;2088;51.032;7.082;2024-01-11T01:35:13;11.43;;;4.33;;
4148;SDS011;2088;51.032;7.082;2024-01-11T01:37:40;8.57;;;4.50;;
4148;SDS011;2088;51.032;7.082;2024-01-11T01:40:08;13.45;;;4.70;;
4148;SDS011;2088;51.032;7.082;2024-01-11T01:42:35;7.60;;;4.87;;
4148;SDS011;2088;51.032;7.082;2024-01-11T01:45:02;7.70;;;4.93;;
4148;SDS011;2088;51.032;7.082;2024-01-11T01:47:30;10.18;;;3.72;;
4148;SDS011;2088;51.032;7.082;2024-01-11T01:49:59;11.67;;;5.70;;
4148;SDS011;2088;51.032;7.082;2024-01-11T01:52:26;7.13;;;5.10;;
4148;SDS011;2088;51.032;7.082;2024-01-11T01:54:53;7.50;;;5.30;;
4148;SDS011;2088;51.032;7.082;2024-01-11T01:57:20;9.50;;;5.60;;
4148;SDS011;2088;51.032;7.082;2024-01-11T01:59:48;13.07;;;5.40;;
4148;SDS011;2088;51.032;7.082;2024-01-11T02:02:16;8.00;;;4.47;;
4148;SDS011;2088;51.032;7.082;2024-01-11T02:04:43;7.83;;;4.87;;
4148;SDS011;2088;51.032;7.082;2024-01-11T02:07:12;14.60;;;5.07;;
4148;SDS011;2088;51.032;7.082;2024-01-11T02:09:40;16.57;;;5.07;;
4148;SDS011;2088;51.032;7.082;2024-01-11T02:12:07;7.13;;;3.90;;
4148;SDS011;2088;51.032;7.082;2024-01-11T02:14:36;13.67;;;6.10;;
4148;SDS011;2088;51.032;7.082;2024-01-11T02:17:04;9.90;;;5.68;;
4148;SDS011;2088;51.032;7.082;2024-01-11T02:19:31;14.80;;;5.60;;
4148;SDS011;2088;51.032;7.082;2024-01-11T02:21:59;17.10;;;4.90;;
4148;SDS011;2088;51.032;7.082;2024-01-11T02:24:28;8.02;;;4.35;;
4148;SDS011;2088;51.032;7.082;2024-01-11T02:26:59;5.87;;;4.53;;
4148;SDS011;2088;51.032;7.082;2024-01-11T02:29:26;10.60;;;4.47;;
4148;SDS011;2088;51.032;7.082;2024-01-11T02:31:53;6.00;;;4.07;;
4148;SDS011;2088;51.032;7.082;2024-01-11T02:34:21;9.10;;;4.23;;
4148;SDS011;2088;51.032;7.082;2024-01-11T02:36:48;15.90;;;6.23;;
4148;SDS011;2088;51.032;7.082;2024-01-11T02:39:16;8.83;;;4.70;;
4148;SDS011;2088;51.032;7.082;2024-01-11T02:41:45;19.77;;;4.20;;
4148;SDS011;2088;51.032;7.082;2024-01-11T02:44:12;11.13;;;5.65;;
4148;SDS011;2088;51.032;7.082;2024-01-11T02:46:39;23.60;;;7.03;;
4148;SDS011;2088;51.032;7.082;2024-01-11T02:49:06;6.57;;;4.43;;
4148;SDS011;2088;51.032;7.082;2024-01-11T02:51:33;13.50;;;4.23;;
4148;SDS011;2088;51.032;7.082;2024-01-11T02:54:01;10.50;;;3.55;;
4148;SDS011;2088;51.032;7.082;2024-01-11T02:56:28;13.73;;;4.97;;
4148;SDS011;2088;51.032;7.082;2024-01-11T02:58:56;9.88;;;5.53;;
4148;SDS011;2088;51.032;7.082;2024-01-11T03:01:23;14.63;;;5.73;;
4148;SDS011;2088;51.032;7.082;2024-01-11T03:03:50;18.90;;;4.70;;
4148;SDS011;2088;51.032;7.082;2024-01-11T03:06:18;9.00;;;4.83;;
4148;SDS011;2088;51.032;7.082;2024-01-11T03:08:46;10.38;;;4.70;;
4148;SDS011;2088;51.032;7.082;2024-01-11T03:11:14;7.40;;;4.38;;
4148;SDS011;2088;51.032;7.082;2024-01-11T03:13:41;6.45;;;3.85;;
4148;SDS011;2088;51.032;7.082;2024-01-11T03:16:09;7.30;;;5.30;;
4148;SDS011;2088;51.032;7.082;2024-01-11T03:18:36;7.95;;;4.50;;
4148;SDS011;2088;51.032;7.082;2024-01-11T03:21:04;10.68;;;4.03;;
4148;SDS011;2088;51.032;7.082;2024-01-11T03:23:31;9.68;;;4.25;;
4148;SDS011;2088;51.032;7.082;2024-01-11T03:25:58;7.35;;;4.45;;
4148;SDS011;2088;51.032;7.082;2024-01-11T03:28:26;11.53;;;5.40;;
4148;SDS011;2088;51.032;7.082;2024-01-11T03:30:53;9.82;;;4.80;;
4148;SDS011;2088;51.032;7.082;2024-01-11T03:33:21;7.77;;;4.70;;
4148;SDS011;2088;51.032;7.082;2024-01-11T03:35:48;9.05;;;5.63;;
4148;SDS011;2088;51.032;7.082;2024-01-11T03:38:15;12.33;;;5.83;;
4148;SDS011;2088;51.032;7.082;2024-01-11T03:40:42;12.48;;;5.63;;
4148;SDS011;2088;51.032;7.082;2024-01-11T03:43:09;6.78;;;3.45;;
4148;SDS011;2088;51.032;7.082;2024-01-11T03:45:36;13.88;;;4.55;;
4148;SDS011;2088;51.032;7.082;2024-01-11T03:48:03;7.80;;;3.83;;
4148;SDS011;2088;51.032;7.082;2024-01-11T03:50:32;13.50;;;6.20;;
4148;SDS011;2088;51.032;7.082;2024-01-11T03:52:59;12.23;;;4.47;;
4148;SDS011;2088;51.032;7.082;2024-01-11T03:55:26;7.63;;;4.80;;
4148;SDS011;2088;51.032;7.082;2024-01-11T03:57:53;9.07;;;4.37;;
4148;SDS011;2088;51.032;7.082;2024-01-11T04:00:20;20.02;;;5.05;;
4148;SDS011;2088;51.032;7.082;2024-01-11T04:02:47;14.48;;;5.25;;
4148;SDS011;2088;51.032;7.082;2024-01-11T04:05:14;10.57;;;5.25;;
4148;SDS011;2088;51.032;7.082;2024-01-11T04:07:43;24.33;;;5.77;;
4148;SDS011;2088;51.032;7.082;2024-01-11T04:10:10;8.73;;;4.13;;
4148;SDS011;2088;51.032;7.082;2024-01-11T04:12:37;8.93;;;5.47;;
4148;SDS011;2088;51.032;7.082;2024-01-11T04:15:04;6.10;;;3.60;;
4148;SDS011;2088;51.032;7.082;2024-01-11T04:17:31;7.57;;;4.80;;
4148;SDS011;2088;51.032;7.082;2024-01-11T04:19:58;5.25;;;4.43;;
4148;SDS011;2088;51.032;7.082;2024-01-11T04:22:27;17.45;;;5.05;;
4148;SDS011;2088;51.032;7.082;2024-01-11T04:24:56;12.10;;;5.50;;
4148;SDS011;2088;51.032;7.082;2024-01-11T04:27:23;10.50;;;5.70;;
4148;SDS011;2088;51.032;7.082;2024-01-11T04:29:50;13.02;;;5.93;;
4148;SDS011;2088;51.032;7.082;2024-01-11T04:32:17;19.35;;;6.82;;
4148;SDS011;2088;51.032;7.082;2024-01-11T04:34:44;9.45;;;4.10;;
4148;SDS011;2088;51.032;7.082;2024-01-11T04:37:11;16.52;;;5.60;;
4148;SDS011;2088;51.032;7.082;2024-01-11T04:39:38;12.63;;;4.75;;
4148;SDS011;2088;51.032;7.082;2024-01-11T04:42:06;9.93;;;4.57;;
4148;SDS011;2088;51.032;7.082;2024-01-11T04:44:33;14.18;;;4.80;;
4148;SDS011;2088;51.032;7.082;2024-01-11T04:47:00;13.18;;;5.60;;
4148;SDS011;2088;51.032;7.082;2024-01-11T04:49:27;13.27;;;5.80;;
4148;SDS011;2088;51.032;7.082;2024-01-11T04:51:54;7.35;;;4.70;;
4148;SDS011;2088;51.032;7.082;2024-01-11T04:54:21;9.15;;;4.40;;
4148;SDS011;2088;51.032;7.082;2024-01-11T04:56:48;12.55;;;5.13;;
4148;SDS011;2088;51.032;7.082;2024-01-11T04:59:17;6.93;;;4.95;;
4148;SDS011;2088;51.032;7.082;2024-01-11T05:01:45;8.27;;;5.32;;
4148;SDS011;2088;51.032;7.082;2024-01-11T05:04:12;9.77;;;5.07;;
4148;SDS011;2088;51.032;7.082;2024-01-11T05:06:39;11.73;;;4.28;;
4148;SDS011;2088;51.032;7.082;2024-01-11T05:09:06;8.00;;;3.97;;
4148;SDS011;2088;51.032;7.082;2024-01-11T05:11:33;8.50;;;4.00;;
4148;SDS011;2088;51.032;7.082;2024-01-11T05:14:00;7.97;;;4.40;;
4148;SDS011;2088;51.032;7.082;2024-01-11T05:16:28;4.18;;;3.65;;
4148;SDS011;2088;51.032;7.082;2024-01-11T05:18:56;7.72;;;5.18;;
4148;SDS011;2088;51.032;7.082;2024-01-11T05:21:23;17.45;;;3.78;;
4148;SDS011;2088;51.032;7.082;2024-01-11T05:23:50;7.38;;;4.90;;
4148;SDS011;2088;51.032;7.082;2024-01-11T05:26:18;8.90;;;5.25;;
4148;SDS011;2088;51.032;7.082;2024-01-11T05:28:45;5.63;;;4.43;;
4148;SDS011;2088;51.032;7.082;2024-01-11T05:31:13;12.80;;;5.95;;
4148;SDS011;2088;51.032;7.082;2024-01-11T05:33:42;11.35;;;4.93;;
4148;SDS011;2088;51.032;7.082;2024-01-11T05:36:09;21.27;;;5.97;;
4148;SDS011;2088;51.032;7.082;2024-01-11T05:38:37;13.00;;;4.75;;
4148;SDS011;2088;51.032;7.082;2024-01-11T05:41:04;13.55;;;3.60;;
4148;SDS011;2088;51.032;7.082;2024-01-11T05:43:31;11.15;;;4.03;;
4148;SDS011;2088;51.032;7.082;2024-01-11T05:45:58;14.85;;;5.72;;
4148;SDS011;2088;51.032;7.082;2024-01-11T05:48:25;11.02;;;5.05;;
4148;SDS011;2088;51.032;7.082;2024-01-11T05:50:54;16.25;;;5.70;;
4148;SDS011;2088;51.032;7.082;2024-01-11T05:53:21;16.27;;;7.67;;
4148;SDS011;2088;51.032;7.082;2024-01-11T05:55:47;8.88;;;4.63;;
4148;SDS011;2088;51.032;7.082;2024-01-11T05:58:14;9.38;;;5.38;;
4148;SDS011;2088;51.032;7.082;2024-01-11T06:00:41;13.83;;;5.03;;
4148;SDS011;2088;51.032;7.082;2024-01-11T06:03:11;11.32;;;5.30;;
4148;SDS011;2088;51.032;7.082;2024-01-11T06:05:38;6.88;;;4.45;;
4148;SDS011;2088;51.032;7.082;2024-01-11T06:08:07;9.82;;;4.65;;
4148;SDS011;2088;51.032;7.082;2024-01-11T06:10:34;11.20;;;6.80;;
4148;SDS011;2088;51.032;7.082;2024-01-11T06:13:01;11.98;;;5.50;;
4148;SDS011;2088;51.032;7.082;2024-01-11T06:15:28;19.35;;;4.57;;
4148;SDS011;2088;51.032;7.082;2024-01-11T06:17:55;9.13;;;5.10;;
4148;SDS011;2088;51.032;7.082;2024-01-11T06:20:22;8.63;;;5.57;;
4148;SDS011;2088;51.032;7.082;2024-01-11T06:22:49;10.63;;;5.60;;
4148;SDS011;2088;51.032;7.082;2024-01-11T06:25:17;16.92;;;7.57;;
4148;SDS011;2088;51.032;7.082;2024-01-11T06:27:45;14.05;;;5.65;;
4148;SDS011;2088;51.032;7.082;2024-01-11T06:30:12;10.35;;;5.10;;
4148;SDS011;2088;51.032;7.082;2024-01-11T06:32:39;8.85;;;4.88;;
4148;SDS011;2088;51.032;7.082;2024-01-11T06:35:06;22.77;;;7.40;;
4148;SDS011;2088;51.032;7.082;2024-01-11T06:37:34;12.82;;;5.85;;
4148;SDS011;2088;51.032;7.082;2024-01-11T06:40:01;9.82;;;5.57;;
4148;SDS011;2088;51.032;7.082;2024-01-11T06:42:31;9.40;;;5.05;;
4148;SDS011;2088;51.032;7.082;2024-01-11T06:44:58;8.95;;;4.25;;
4148;SDS011;2088;51.032;7.082;2024-01-11T06:47:25;11.07;;;5.50;;
4148;SDS011;2088;51.032;7.082;2024-01-11T06:49:52;17.17;;;5.88;;
4148;SDS011;2088;51.032;7.082;2024-01-11T06:52:19;8.75;;;3.67;;
4148;SDS011;2088;51.032;7.082;2024-01-11T06:54:46;9.38;;;4.65;;
4148;SDS011;2088;51.032;7.082;2024-01-11T06:57:13;8.30;;;4.55;;
4148;SDS011;2088;51.032;7.082;2024-01-11T06:59:42;10.40;;;3.55;;
4148;SDS011;2088;51.032;7.082;2024-01-11T07:02:11;8.55;;;5.50;;
4148;SDS011;2088;51.032;7.082;2024-01-11T07:04:38;8.50;;;3.80;;
4148;SDS011;2088;51.032;7.082;2024-01-11T07:07:09;7.18;;;4.25;;
4148;SDS011;2088;51.032;7.082;2024-01-11T07:09:36;8.90;;;3.65;;
4148;SDS011;2088;51.032;7.082;2024-01-11T07:12:04;10.20;;;4.47;;
4148;SDS011;2088;51.032;7.082;2024-01-11T07:14:32;6.90;;;4.15;;
4148;SDS011;2088;51.032;7.082;2024-01-11T07:17:00;9.50;;;4.45;;
4148;SDS011;2088;51.032;7.082;2024-01-11T07:19:27;14.52;;;5.82;;
4148;SDS011;2088;51.032;7.082;2024-01-11T07:21:54;7.93;;;5.03;;
4148;SDS011;2088;51.032;7.082;2024-01-11T07:24:21;10.02;;;4.35;;
4148;SDS011;2088;51.032;7.082;2024-01-11T07:26:48;18.63;;;7.45;;
4148;SDS011;2088;51.032;7.082;2024-01-11T07:29:15;17.58;;;4.40;;
4148;SDS011;2088;51.032;7.082;2024-01-11T07:31:43;7.13;;;4.05;;
4148;SDS011;2088;51.032;7.082;2024-01-11T07:34:11;16.52;;;5.63;;
4148;SDS011;2088;51.032;7.082;2024-01-11T07:36:38;8.77;;;6.13;;
4148;SDS011;2088;51.032;7.082;2024-01-11T07:39:05;4.25;;;2.70;;
4148;SDS011;2088;51.032;7.082;2024-01-11T07:41:32;10.68;;;4.00;;
4148;SDS011;2088;51.032;7.082;2024-01-11T07:43:59;6.95;;;5.03;;
4148;SDS011;2088;51.032;7.082;2024-01-11T07:46:26;23.23;;;4.30;;
4148;SDS011;2088;51.032;7.082;2024-01-11T07:48:53;9.10;;;4.10;;
4148;SDS011;2088;51.032;7.082;2024-01-11T07:51:22;8.35;;;4.47;;
4148;SDS011;2088;51.032;7.082;2024-01-11T07:53:49;14.05;;;4.40;;
4148;SDS011;2088;51.032;7.082;2024-01-11T07:56:16;8.40;;;5.50;;
4148;SDS011;2088;51.032;7.082;2024-01-11T07:58:43;7.15;;;3.67;;
4148;SDS011;2088;51.032;7.082;2024-01-11T08:01:11;7.30;;;5.03;;
4148;SDS011;2088;51.032;7.082;2024-01-11T08:03:38;24.67;;;6.82;;
4148;SDS011;2088;51.032;7.082;2024-01-11T08:06:06;12.98;;;5.97;;
4148;SDS011;2088;51.032;7.082;2024-01-11T08:08:36;18.90;;;6.65;;
4148;SDS011;2088;51.032;7.082;2024-01-11T08:11:04;15.55;;;5.60;;
4148;SDS011;2088;51.032;7.082;2024-01-11T08:13:31;7.20;;;4.63;;
4148;SDS011;2088;51.032;7.082;2024-01-11T08:16:00;13.20;;;7.80;;
4148;SDS011;2088;51.032;7.082;2024-01-11T08:18:28;9.07;;;4.18;;
4148;SDS011;2088;51.032;7.082;2024-01-11T08:20:56;11.75;;;5.00;;
4148;SDS011;2088;51.032;7.082;2024-01-11T08:23:23;5.93;;;4.55;;
4148;SDS011;2088;51.032;7.082;2024-01-11T08:25:51;9.10;;;4.93;;
4148;SDS011;2088;51.032;7.082;2024-01-11T08:28:18;10.93;;;5.70;;
4148;SDS011;2088;51.032;7.082;2024-01-11T08:30:45;19.50;;;6.30;;
4148;SDS011;2088;51.032;7.082;2024-01-11T08:33:12;13.45;;;8.00;;
4148;SDS011;2088;51.032;7.082;2024-01-11T08:35:39;5.78;;;4.90;;
4148;SDS011;2088;51.032;7.082;2024-01-11T08:38:07;13.60;;;5.72;;
4148;SDS011;2088;51.032;7.082;2024-01-11T08:40:34;11.70;;;5.22;;
4148;SDS011;2088;51.032;7.082;2024-01-11T08:43:03;13.20;;;6.65;;
4148;SDS011;2088;51.032;7.082;2024-01-11T08:45:31;15.93;;;8.25;;
4148;SDS011;2088;51.032;7.082;2024-01-11T08:47:58;10.35;;;5.35;;
4148;SDS011;2088;51.032;7.082;2024-01-11T08:50:25;21.02;;;9.25;;
4148;SDS011;2088;51.032;7.082;2024-01-11T08:52:52;15.95;;;8.48;;
4148;SDS011;2088;51.032;7.082;2024-01-11T08:55:20;9.40;;;6.00;;
4148;SDS011;2088;51.032;7.082;2024-01-11T08:57:47;16.80;;;8.30;;
4148;SDS011;2088;51.032;7.082;2024-01-11T09:00:16;15.73;;;7.20;;
4148;SDS011;2088;51.032;7.082;2024-01-11T09:02:43;15.85;;;8.50;;
4148;SDS011;2088;51.032;7.082;2024-01-11T09:05:10;11.20;;;6.30;;
4148;SDS011;2088;51.032;7.082;2024-01-11T09:07:37;17.33;;;6.93;;
4148;SDS011;2088;51.032;7.082;2024-01-11T09:10:05;11.00;;;6.30;;
4148;SDS011;2088;51.032;7.082;2024-01-11T09:12:33;11.87;;;5.50;;
4148;SDS011;2088;51.032;7.082;2024-01-11T09:15:01;24.30;;;8.40;;
4148;SDS011;2088;51.032;7.082;2024-01-11T09:17:29;19.30;;;5.90;;
4148;SDS011;2088;51.032;7.082;2024-01-11T09:19:57;12.50;;;5.67;;
4148;SDS011;2088;51.032;7.082;2024-01-11T09:22:24;17.77;;;6.83;;
4148;SDS011;2088;51.032;7.082;2024-01-11T09:24:52;18.53;;;8.47;;
4148;SDS011;2088;51.032;7.082;2024-01-11T09:27:19;12.33;;;7.03;;
4148;SDS011;2088;51.032;7.082;2024-01-11T09:29:47;17.27;;;8.33;;
4148;SDS011;2088;51.032;7.082;2024-01-11T09:32:14;20.67;;;9.33;;
4148;SDS011;2088;51.032;7.082;2024-01-11T09:34:42;22.73;;;8.13;;
4148;SDS011;2088;51.032;7.082;2024-01-11T09:37:10;13.93;;;6.63;;
4148;SDS011;2088;51.032;7.082;2024-01-11T09:39:37;25.53;;;9.60;;
4148;SDS011;2088;51.032;7.082;2024-01-11T09:42:05;16.50;;;7.23;;
4148;SDS011;2088;51.032;7.082;2024-01-11T09:44:34;16.20;;;6.97;;
4148;SDS011;2088;51.032;7.082;2024-01-11T09:47:02;16.50;;;7.53;;
4148;SDS011;2088;51.032;7.082;2024-01-11T09:49:30;17.07;;;6.67;;
4148;SDS011;2088;51.032;7.082;2024-01-11T09:51:59;31.40;;;7.47;;
4148;SDS011;2088;51.032;7.082;2024-01-11T09:54:27;15.53;;;6.93;;
4148;SDS011;2088;51.032;7.082;2024-01-11T09:56:54;22.90;;;9.83;;
4148;SDS011;2088;51.032;7.082;2024-01-11T09:59:21;23.13;;;10.00;;
4148;SDS011;2088;51.032;7.082;2024-01-11T10:01:50;24.93;;;11.97;;
4148;SDS011;2088;51.032;7.082;2024-01-11T10:04:17;16.80;;;6.77;;
4148;SDS011;2088;51.032;7.082;2024-01-11T10:06:44;33.10;;;10.10;;
4148;SDS011;2088;51.032;7.082;2024-01-11T10:09:14;20.13;;;8.97;;
4148;SDS011;2088;51.032;7.082;2024-01-11T10:11:42;15.50;;;8.77;;
4148;SDS011;2088;51.032;7.082;2024-01-11T10:14:10;19.50;;;10.80;;
4148;SDS011;2088;51.032;7.082;2024-01-11T10:16:37;20.17;;;10.90;;
4148;SDS011;2088;51.032;7.082;2024-01-11T10:19:04;28.83;;;10.10;;
4148;SDS011;2088;51.032;7.082;2024-01-11T10:21:32;23.93;;;9.97;;
4148;SDS011;2088;51.032;7.082;2024-01-11T10:23:59;32.67;;;11.07;;
4148;SDS011;2088;51.032;7.082;2024-01-11T10:26:31;20.60;;;9.37;;
4148;SDS011;2088;51.032;7.082;2024-01-11T10:28:58;23.33;;;10.60;;
4148;SDS011;2088;51.032;7.082;2024-01-11T10:31:28;20.80;;;10.00;;
4148;SDS011;2088;51.032;7.082;2024-01-11T10:33:55;22.13;;;11.67;;
4148;SDS011;2088;51.032;7.082;2024-01-11T10:36:22;25.97;;;9.80;;
4148;SDS011;2088;51.032;7.082;2024-01-11T10:38:49;21.10;;;10.80;;
4148;SDS011;2088;51.032;7.082;2024-01-11T10:41:17;23.03;;;9.77;;
4148;SDS011;2088;51.032;7.082;2024-01-11T10:43:46;28.77;;;11.70;;
4148;SDS011;2088;51.032;7.082;2024-01-11T10:46:15;28.20;;;11.90;;
4148;SDS011;2088;51.032;7.082;2024-01-11T10:48:47;22.20;;;10.50;;
4148;SDS011;2088;51.032;7.082;2024-01-11T10:51:16;31.93;;;11.80;;
4148;SDS011;2088;51.032;7.082;2024-01-11T10:53:46;41.83;;;13.13;;
4148;SDS011;2088;51.032;7.082;2024-01-11T10:56:15;29.33;;;12.50;;
4148;SDS011;2088;51.032;7.082;2024-01-11T10:58:43;34.03;;;12.50;;
4148;SDS011;2088;51.032;7.082;2024-01-11T11:01:12;27.07;;;11.30;;
4148;SDS011;2088;51.032;7.082;2024-01-11T11:03:40;28.10;;;12.27;;
4148;SDS011;2088;51.032;7.082;2024-01-11T11:06:09;26.40;;;13.00;;
4148;SDS011;2088;51.032;7.082;2024-01-11T11:08:36;32.90;;;11.80;;
4148;SDS011;2088;51.032;7.082;2024-01-11T11:11:03;26.90;;;11.97;;
4148;SDS011;2088;51.032;7.082;2024-01-11T11:13:31;26.63;;;12.77;;
4148;SDS011;2088;51.032;7.082;2024-01-11T11:15:59;31.47;;;12.77;;
4148;SDS011;2088;51.032;7.082;2024-01-11T11:18:30;31.30;;;13.10;;
4148;SDS011;2088;51.032;7.082;2024-01-11T11:20:59;25.97;;;12.07;;
4148;SDS011;2088;51.032;7.082;2024-01-11T11:23:27;28.33;;;12.10;;
4148;SDS011;2088;51.032;7.082;2024-01-11T11:25:54;25.27;;;11.40;;
4148;SDS011;2088;51.032;7.082;2024-01-11T11:28:22;32.83;;;12.80;;
4148;SDS011;2088;51.032;7.082;2024-01-11T11:30:51;24.50;;;11.60;;
4148;SDS011;2088;51.032;7.082;2024-01-11T11:33:21;32.13;;;13.70;;
4148;SDS011;2088;51.032;7.082;2024-01-11T11:35:52;27.03;;;11.03;;
4148;SDS011;2088;51.032;7.082;2024-01-11T11:38:20;35.60;;;12.93;;
4148;SDS011;2088;51.032;7.082;2024-01-11T11:40:47;28.43;;;13.30;;
4148;SDS011;2088;51.032;7.082;2024-01-11T11:43:15;28.30;;;12.43;;
4148;SDS011;2088;51.032;7.082;2024-01-11T11:45:43;49.53;;;11.43;;
4148;SDS011;2088;51.032;7.082;2024-01-11T11:51:02;30.33;;;13.03;;
4148;SDS011;2088;51.032;7.082;2024-01-11T11:53:33;23.77;;;11.13;;
4148;SDS011;2088;51.032;7.082;2024-01-11T11:56:01;27.57;;;11.67;;
4148;SDS011;2088;51.032;7.082;2024-01-11T11:58:29;22.40;;;11.47;;
4148;SDS011;2088;51.032;7.082;2024-01-11T12:00:57;28.40;;;12.27;;
4148;SDS011;2088;51.032;7.082;2024-01-11T12:03:25;29.70;;;12.00;;
4148;SDS011;2088;51.032;7.082;2024-01-11T12:05:52;24.93;;;11.87;;
4148;SDS011;2088;51.032;7.082;2024-01-11T12:08:21;27.27;;;12.53;;
4148;SDS011;2088;51.032;7.082;2024-01-11T12:10:48;33.10;;;13.87;;
4148;SDS011;2088;51.032;7.082;2024-01-11T12:13:15;27.60;;;13.37;;
4148;SDS011;2088;51.032;7.082;2024-01-11T12:15:43;35.50;;;13.43;;
4148;SDS011;2088;51.032;7.082;2024-01-11T12:18:10;33.93;;;13.60;;
4148;SDS011;2088;51.032;7.082;2024-01-11T12:20:37;28.73;;;12.30;;
4148;SDS011;2088;51.032;7.082;2024-01-11T12:23:04;32.90;;;14.57;;
4148;SDS011;2088;51.032;7.082;2024-01-11T12:25:32;28.20;;;14.07;;
4148;SDS011;2088;51.032;7.082;2024-01-11T12:27:59;37.50;;;14.90;;
4148;SDS011;2088;51.032;7.082;2024-01-11T12:30:27;30.40;;;13.63;;
4148;SDS011;2088;51.032;7.082;2024-01-11T12:32:55;40.10;;;13.00;;
4148;SDS011;2088;51.032;7.082;2024-01-11T12:35:23;29.03;;;12.43;;
4148;SDS011;2088;51.032;7.082;2024-01-11T12:37:53;31.23;;;13.03;;
4148;SDS011;2088;51.032;7.082;2024-01-11T12:40:20;31.63;;;11.60;;
4148;SDS011;2088;51.032;7.082;2024-01-11T12:42:48;37.53;;;14.70;;
4148;SDS011;2088;51.032;7.082;2024-01-11T12:45:16;32.33;;;14.33;;
4148;SDS011;2088;51.032;7.082;2024-01-11T12:47:43;28.00;;;12.23;;
4148;SDS011;2088;51.032;7.082;2024-01-11T12:50:10;29.63;;;12.97;;
4148;SDS011;2088;51.032;7.082;2024-01-11T12:52:38;40.90;;;13.83;;
4148;SDS011;2088;51.032;7.082;2024-01-11T12:55:06;31.20;;;11.00;;
4148;SDS011;2088;51.032;7.082;2024-01-11T12:57:34;30.87;;;12.33;;
4148;SDS011;2088;51.032;7.082;2024-01-11T13:00:10;29.57;;;12.27;;
4148;SDS011;2088;51.032;7.082;2024-01-11T13:02:38;34.10;;;12.23;;
4148;SDS011;2088;51.032;7.082;2024-01-11T13:05:05;31.67;;;12.40;;
4148;SDS011;2088;51.032;7.082;2024-01-11T13:07:33;33.13;;;12.50;;
4148;SDS011;2088;51.032;7.082;2024-01-11T13:10:00;20.07;;;9.83;;
4148;SDS011;2088;51.032;7.082;2024-01-11T13:12:28;20.20;;;11.03;;
4148;SDS011;2088;51.032;7.082;2024-01-11T13:14:56;26.87;;;12.60;;
4148;SDS011;2088;51.032;7.082;2024-01-11T13:17:25;18.37;;;9.07;;
4148;SDS011;2088;51.032;7.082;2024-01-11T13:19:52;25.50;;;11.67;;
4148;SDS011;2088;51.032;7.082;2024-01-11T13:22:19;25.33;;;12.37;;
4148;SDS011;2088;51.032;7.082;2024-01-11T13:24:47;29.10;;;12.17;;
4148;SDS011;2088;51.032;7.082;2024-01-11T13:27:14;19.10;;;10.67;;
4148;SDS011;2088;51.032;7.082;2024-01-11T13:29:41;23.07;;;10.47;;
4148;SDS011;2088;51.032;7.082;2024-01-11T13:32:08;33.93;;;12.73;;
4148;SDS011;2088;51.032;7.082;2024-01-11T13:34:37;22.63;;;10.40;;
4148;SDS011;2088;51.032;7.082;2024-01-11T13:37:04;31.37;;;11.20;;
4148;SDS011;2088;51.032;7.082;2024-01-11T13:39:31;26.60;;;11.47;;
4148;SDS011;2088;51.032;7.082;2024-01-11T13:41:58;29.67;;;11.13;;
4148;SDS011;2088;51.032;7.082;2024-01-11T13:44:28;28.23;;;10.77;;
4148;SDS011;2088;51.032;7.082;2024-01-11T13:46:55;23.37;;;10.30;;
4148;SDS011;2088;51.032;7.082;2024-01-11T13:49:22;26.87;;;11.70;;
4148;SDS011;2088;51.032;7.082;2024-01-11T13:51:51;29.27;;;13.27;;
4148;SDS011;2088;51.032;7.082;2024-01-11T13:54:19;26.13;;;11.77;;
4148;SDS011;2088;51.032;7.082;2024-01-11T13:56:46;31.23;;;12.87;;
4148;SDS011;2088;51.032;7.082;2024-01-11T13:59:14;22.57;;;11.33;;
4148;SDS011;2088;51.032;7.082;2024-01-11T14:01:41;31.50;;;12.93;;
4148;SDS011;2088;51.032;7.082;2024-01-11T14:04:08;30.27;;;11.27;;
4148;SDS011;2088;51.032;7.082;2024-01-11T14:06:35;28.93;;;12.37;;
4148;SDS011;2088;51.032;7.082;2024-01-11T14:09:03;30.03;;;12.70;;
4148;SDS011;2088;51.032;7.082;2024-01-11T14:11:34;31.70;;;14.00;;
4148;SDS011;2088;51.032;7.082;2024-01-11T14:14:01;32.60;;;13.33;;
4148;SDS011;2088;51.032;7.082;2024-01-11T14:16:28;30.37;;;13.20;;
4148;SDS011;2088;51.032;7.082;2024-01-11T14:18:55;31.43;;;10.83;;
4148;SDS011;2088;51.032;7.082;2024-01-11T14:21:22;34.90;;;12.90;;
4148;SDS011;2088;51.032;7.082;2024-01-11T14:23:49;41.83;;;15.17;;
4148;SDS011;2088;51.032;7.082;2024-01-11T14:26:18;27.87;;;12.13;;
4148;SDS011;2088;51.032;7.082;2024-01-11T14:28:45;24.10;;;11.50;;
4148;SDS011;2088;51.032;7.082;2024-01-11T14:31:12;26.47;;;12.53;;
4148;SDS011;2088;51.032;7.082;2024-01-11T14:33:39;35.87;;;13.60;;
4148;SDS011;2088;51.032;7.082;2024-01-11T14:36:07;26.10;;;12.50;;
4148;SDS011;2088;51.032;7.082;2024-01-11T14:38:34;35.57;;;13.27;;
4148;SDS011;2088;51.032;7.082;2024-01-11T14:41:01;23.50;;;12.30;;
4148;SDS011;2088;51.032;7.082;2024-01-11T14:43:29;27.10;;;13.60;;
4148;SDS011;2088;51.032;7.082;2024-01-11T14:45:55;20.60;;;10.90;;
4148;SDS011;2088;51.032;7.082;2024-01-11T14:48:22;25.07;;;10.30;;
4148;SDS011;2088;51.032;7.082;2024-01-11T14:50:49;23.93;;;11.03;;
4148;SDS011;2088;51.032;7.082;2024-01-11T14:53:17;23.17;;;9.80;;
4148;SDS011;2088;51.032;7.082;2024-01-11T14:55:44;28.20;;;11.83;;
4148;SDS011;2088;51.032;7.082;2024-01-11T14:58:11;29.57;;;13.30;;
4148;SDS011;2088;51.032;7.082;2024-01-11T15:00:39;25.20;;;12.20;;
4148;SDS011;2088;51.032;7.082;2024-01-11T15:03:06;26.07;;;10.83;;
4148;SDS011;2088;51.032;7.082;2024-01-11T15:05:33;24.43;;;12.03;;